logo
Search for airport 
image banner adimage banner adimage banner ad
image banner ad

LOLT - Seitenstetten

Located in District Amstetten, Austria

ICAO - LOLT, IATA -

Data provided by Airmate  

General information

Coordinates: N48°3'2" E14°39'43"
Elevation is 1050 feet MSL.
Magnetic variation is 5° East
Rated:
View ratings:
[VIEW]
View others Airports in Lower Austria

Operational data

Special qualification required
Current time UTC:
Current local time:
Weather at : LOWL - Linz ( 41 km )
METAR: LOWL 150950Z AUTO 25009KT 9999 -SHRA FEW040 BKN050 FEW050TCU 16/13 Q1012 TEMPO SHRA
TAF: TAF LOWL 150515Z 1506/1606 27010KT CAVOK TX18/1513Z TN08/1606Z TEMPO 1506/1508 VRB03KT TEMPO 1507/1511 SHRA TEMPO 1511/1519 SHRA FEW030CB BKN040 PROB40 TEMPO 1511/1517 29020G30KT 4000 +TSRA TEMPO 1522/1602 32025G45KT RA TEMPO 1602/1606 27020G35KT RA
View NOTAMs / SUP AIP / TFR affecting this airport [VIEW]
Communications frequencies: [VIEW]

Runways:

RWY identifierQFULength (ft)Width (ft)SurfaceLDA (ft)
10272382GRASS
28272382GRASS

Airport contact information

Address: District Amstetten Austria

Other aviation service providers

Aviation club (not for profit)

Flugunion Seitenstetten-Biberbach

Flugunion Seitenstetten-Biberbach
Rated:
View ratings:
[VIEW]

Satellite view of LOLT